createdAt,value
2019-04-30T00:03:02.253Z,99357.58
2019-04-30T00:07:17.472Z,99349.83
2019-04-30T00:11:20.664Z,99352.50
2019-04-30T00:15:29.298Z,99342.52
2019-04-30T00:19:36.903Z,99355.95
2019-04-30T00:23:45.932Z,99361.33
2019-04-30T00:27:55.821Z,99357.09
2019-04-30T00:32:07.912Z,99358.77
2019-04-30T00:36:17.338Z,99358.14
2019-04-30T00:40:26.672Z,99361.37
2019-04-30T00:44:35.685Z,99348.48
2019-04-30T00:48:43.478Z,99349.94
2019-04-30T00:52:51.067Z,99342.09
2019-04-30T00:57:04.527Z,99334.95
2019-04-30T01:01:31.921Z,99341.40
2019-04-30T01:05:46.475Z,99332.98
2019-04-30T01:09:50.410Z,99333.61
2019-04-30T01:13:59.106Z,99334.64
2019-04-30T01:18:06.796Z,99338.00
2019-04-30T01:22:21.072Z,99328.38
2019-04-30T01:26:27.701Z,99323.00
2019-04-30T01:30:34.878Z,99316.81
2019-04-30T01:34:44.128Z,99310.99
2019-04-30T01:38:53.139Z,99301.58
2019-04-30T01:43:01.017Z,99305.97
2019-04-30T01:47:09.598Z,99306.99
2019-04-30T01:51:21.635Z,99310.50
2019-04-30T01:55:41.490Z,99307.56
2019-04-30T02:00:09.754Z,99293.81
2019-04-30T02:04:19.491Z,99297.53
2019-04-30T02:08:27.139Z,99290.82
2019-04-30T02:12:35.131Z,99295.83
2019-04-30T02:16:43.177Z,99295.51
2019-04-30T02:20:51.450Z,99297.11
2019-04-30T02:24:59.714Z,99292.94
2019-04-30T02:29:09.160Z,99292.15
2019-04-30T02:33:19.897Z,99290.33
2019-04-30T02:37:31.196Z,99284.80
2019-04-30T02:41:41.343Z,99286.59
2019-04-30T02:45:51.859Z,99278.63
2019-04-30T02:50:14.043Z,99285.16
2019-04-30T02:54:29.472Z,99279.91
2019-04-30T02:58:37.272Z,99271.72
2019-04-30T03:02:45.012Z,99262.52
2019-04-30T03:06:52.697Z,99264.40
2019-04-30T03:11:00.825Z,99265.24
2019-04-30T03:15:09.976Z,99264.72
2019-04-30T03:19:29.344Z,99270.25
2019-04-30T03:23:39.160Z,99271.06
2019-04-30T03:27:46.322Z,99275.02
2019-04-30T03:31:54.918Z,99278.50
2019-04-30T03:36:03.056Z,99270.09
2019-04-30T03:40:13.304Z,99273.02
2019-04-30T03:44:25.376Z,99275.48
2019-04-30T03:48:30.557Z,99277.61
2019-04-30T03:52:39.498Z,99281.77
2019-04-30T03:56:50.251Z,99272.41
2019-04-30T04:01:05.578Z,99281.09
2019-04-30T04:05:32.408Z,99278.54
2019-04-30T04:09:45.695Z,99284.55
2019-04-30T04:13:53.453Z,99276.27
2019-04-30T04:18:01.678Z,99274.19
2019-04-30T04:22:12.221Z,99271.45
2019-04-30T04:26:20.225Z,99277.16
2019-04-30T04:30:29.805Z,99276.69
2019-04-30T04:34:40.091Z,99276.31
2019-04-30T04:38:50.413Z,99266.25
2019-04-30T04:42:57.050Z,99256.49
2019-04-30T04:47:05.145Z,99256.00
2019-04-30T04:51:27.655Z,99246.09
2019-04-30T04:55:22.512Z,99251.08
2019-04-30T04:59:30.125Z,99253.08
2019-04-30T05:03:40.022Z,99247.94
2019-04-30T05:07:48.634Z,99255.64
2019-04-30T05:11:56.410Z,99254.83
2019-04-30T05:16:04.346Z,99251.33
2019-04-30T05:20:12.449Z,99248.25
2019-04-30T05:24:20.157Z,99253.00
2019-04-30T05:28:29.971Z,99253.45
2019-04-30T05:32:39.081Z,99249.00
2019-04-30T05:36:48.850Z,99247.33
2019-04-30T05:40:56.926Z,99244.64
2019-04-30T05:45:05.156Z,99246.95
2019-04-30T05:49:13.350Z,99241.33
2019-04-30T05:53:21.367Z,99249.91
2019-04-30T05:57:29.509Z,99255.00
2019-04-30T06:01:39.503Z,99258.16
2019-04-30T06:05:49.169Z,99259.15
2019-04-30T06:10:19.382Z,99265.32
2019-04-30T06:14:48.030Z,99269.63
2019-04-30T06:18:45.510Z,99264.73
2019-04-30T06:22:53.823Z,99269.05
2019-04-30T06:27:03.775Z,99263.90
2019-04-30T06:31:12.050Z,99263.94
2019-04-30T06:35:20.352Z,99263.42
2019-04-30T06:39:28.843Z,99254.83
2019-04-30T06:43:38.582Z,99255.05
2019-04-30T06:47:48.949Z,99257.05
2019-04-30T06:51:58.775Z,99260.88
2019-04-30T06:56:06.445Z,99259.81
2019-04-30T07:00:14.957Z,99261.16
2019-04-30T07:04:22.889Z,99257.83
2019-04-30T07:08:57.035Z,99264.49
2019-04-30T07:13:22.203Z,99277.14
2019-04-30T07:17:30.148Z,99263.42
2019-04-30T07:21:42.914Z,99271.95
2019-04-30T07:25:49.358Z,99276.56
2019-04-30T07:29:59.569Z,99276.27
2019-04-30T07:34:09.114Z,99271.25
2019-04-30T07:38:19.224Z,99265.05
2019-04-30T07:42:26.641Z,99265.05
2019-04-30T07:46:35.212Z,99255.36
2019-04-30T07:50:44.407Z,99256.88
2019-04-30T07:54:52.446Z,99254.83
2019-04-30T07:59:00.792Z,99252.33
2019-04-30T08:03:34.215Z,99247.85
2019-04-30T08:07:42.764Z,99255.72
2019-04-30T08:11:50.705Z,99251.59
2019-04-30T08:15:59.638Z,99258.84
2019-04-30T08:20:08.739Z,99244.22
2019-04-30T08:24:16.783Z,99242.14
2019-04-30T08:28:25.115Z,99238.63
2019-04-30T08:32:32.868Z,99230.69
2019-04-30T08:36:40.983Z,99230.53
2019-04-30T08:40:56.178Z,99235.61
2019-04-30T08:44:59.255Z,99218.20
2019-04-30T08:49:09.213Z,99216.98
2019-04-30T08:53:27.559Z,99215.78
2019-04-30T08:57:26.121Z,99219.78
2019-04-30T09:01:34.135Z,99218.63
2019-04-30T09:06:00.189Z,99222.19
2019-04-30T09:10:09.255Z,99197.70
2019-04-30T09:14:18.703Z,99198.95
2019-04-30T09:18:29.170Z,99198.95
2019-04-30T09:22:39.359Z,99184.25
2019-04-30T09:26:49.145Z,99184.25
2019-04-30T09:30:58.630Z,99182.30
2019-04-30T09:35:06.722Z,99169.89
2019-04-30T09:39:14.836Z,99166.02
2019-04-30T09:43:23.055Z,99166.02
2019-04-30T09:47:30.966Z,99165.19
2019-04-30T09:51:39.714Z,99165.19
2019-04-30T09:55:49.597Z,99157.79
2019-04-30T09:59:57.678Z,99141.39
2019-04-30T10:04:06.361Z,99152.63
2019-04-30T10:08:14.729Z,99154.75
2019-04-30T10:12:23.194Z,99136.29
2019-04-30T10:16:36.879Z,99144.93
2019-04-30T10:20:45.572Z,99141.39
2019-04-30T10:24:53.540Z,99143.80
2019-04-30T10:29:02.590Z,99136.44
2019-04-30T10:33:10.325Z,99129.63
2019-04-30T10:37:18.974Z,99129.63
2019-04-30T10:41:28.814Z,99123.03
2019-04-30T10:45:38.824Z,99103.79
2019-04-30T10:49:48.666Z,99103.79
2019-04-30T10:53:59.181Z,99098.38
2019-04-30T12:41:14.351Z,98994.78
2019-04-30T12:45:22.263Z,98999.12
2019-04-30T12:49:47.956Z,98999.12
2019-04-30T12:53:59.777Z,98968.58
2019-04-30T12:58:09.681Z,98960.06
2019-04-30T13:02:19.139Z,98940.31
2019-04-30T13:06:28.019Z,98946.11
2019-04-30T13:10:37.078Z,98946.11
2019-04-30T13:14:51.717Z,98958.05
2019-04-30T13:18:55.259Z,98938.64
2019-04-30T13:23:03.467Z,98931.37
2019-04-30T13:27:11.172Z,98913.20
2019-04-30T13:31:19.504Z,98919.02
2019-04-30T13:35:28.990Z,98928.90
2019-04-30T13:39:52.194Z,98931.86
2019-04-30T13:44:06.087Z,98922.19
2019-04-30T13:48:14.800Z,98935.91
2019-04-30T13:52:23.233Z,98921.64
2019-04-30T13:56:30.925Z,98914.78
2019-04-30T14:00:39.756Z,98910.18
2019-04-30T14:04:59.694Z,98882.20
2019-04-30T14:09:17.733Z,98882.20
2019-04-30T14:13:27.112Z,98884.70
2019-04-30T14:17:34.955Z,98884.28
2019-04-30T14:21:42.872Z,98882.50
2019-04-30T14:25:56.651Z,98883.53
2019-04-30T14:30:00.121Z,98879.73
2019-04-30T14:34:09.980Z,98894.15
2019-04-30T14:38:19.025Z,98879.91
2019-04-30T14:42:27.624Z,98889.45
2019-04-30T14:46:54.354Z,98889.45
2019-04-30T14:51:03.222Z,98878.77
2019-04-30T14:55:29.509Z,98879.27
2019-04-30T15:00:02.574Z,98881.97
2019-04-30T15:04:12.419Z,98881.12
2019-04-30T15:08:20.271Z,98873.02
2019-04-30T15:12:28.068Z,98878.81
2019-04-30T15:16:35.988Z,98879.02
2019-04-30T15:20:43.994Z,98888.84
2019-04-30T15:24:51.906Z,98888.77
2019-04-30T15:29:00.120Z,98886.98
2019-04-30T15:33:31.276Z,98893.39
2019-04-30T15:37:41.253Z,98889.92
2019-04-30T15:41:48.933Z,98883.27
2019-04-30T15:45:57.377Z,98894.95
2019-04-30T15:50:05.681Z,98903.67
2019-04-30T15:54:13.719Z,98924.48
2019-04-30T15:58:25.425Z,98963.92
2019-04-30T16:02:56.550Z,98999.57
2019-04-30T16:07:01.921Z,99016.63
2019-04-30T16:11:31.802Z,99004.22
2019-04-30T16:15:39.574Z,99008.84
2019-04-30T16:19:47.458Z,99015.08
2019-04-30T16:23:55.116Z,99023.59
2019-04-30T16:28:02.992Z,99020.24
2019-04-30T16:32:11.004Z,99033.86
2019-04-30T16:36:19.314Z,99055.47
2019-04-30T16:40:29.000Z,99043.58
2019-04-30T16:44:36.778Z,99063.81
2019-04-30T16:48:45.006Z,99056.39
2019-04-30T16:52:53.228Z,99067.09
2019-04-30T16:57:04.203Z,99072.56
2019-04-30T17:01:12.446Z,99090.17
2019-04-30T17:05:39.577Z,99078.68
2019-04-30T17:09:59.074Z,99093.63
2019-04-30T17:14:10.135Z,99105.48
2019-04-30T17:18:19.088Z,99121.72
2019-04-30T17:22:26.798Z,99139.65
2019-04-30T17:26:34.719Z,99168.23
2019-04-30T17:30:42.507Z,99183.27
2019-04-30T17:34:50.247Z,99195.64
2019-04-30T17:38:58.256Z,99213.59
2019-04-30T17:43:06.266Z,99214.33
2019-04-30T17:47:13.976Z,99206.33
2019-04-30T17:51:22.880Z,99202.48
2019-04-30T17:55:30.754Z,99202.16
2019-04-30T17:59:38.623Z,99184.81
2019-04-30T18:03:48.704Z,99196.34
2019-04-30T18:07:56.219Z,99189.27
2019-04-30T18:12:04.054Z,99181.91
2019-04-30T18:16:12.021Z,99201.66
2019-04-30T18:20:32.295Z,99188.48
2019-04-30T18:24:51.905Z,99211.12
2019-04-30T18:28:59.526Z,99212.55
2019-04-30T18:33:09.900Z,99223.43
2019-04-30T18:37:18.919Z,99247.11
2019-04-30T18:41:26.634Z,99242.03
2019-04-30T18:45:34.830Z,99248.09
2019-04-30T18:49:42.553Z,99252.39
2019-04-30T18:53:50.476Z,99266.06
2019-04-30T18:58:01.248Z,99273.33
2019-04-30T19:02:10.758Z,99279.35
2019-04-30T19:06:26.048Z,99276.34
2019-04-30T19:10:50.843Z,99281.46
2019-04-30T19:15:09.066Z,99280.49
2019-04-30T19:19:26.202Z,99268.17
2019-04-30T19:23:34.192Z,99262.03
2019-04-30T19:27:41.892Z,99265.61
2019-04-30T19:31:50.038Z,99287.95
2019-04-30T19:35:58.595Z,99280.56
2019-04-30T19:40:08.917Z,99279.33
2019-04-30T19:44:20.661Z,99280.47
2019-04-30T19:48:28.041Z,99288.48
2019-04-30T19:52:36.534Z,99281.47
2019-04-30T19:56:44.683Z,99278.44
2019-04-30T20:00:52.780Z,99287.53
2019-04-30T20:05:01.258Z,99314.41
2019-04-30T20:09:10.945Z,99313.49
2019-04-30T20:13:32.909Z,99327.30
2019-04-30T20:17:29.641Z,99327.12
2019-04-30T20:21:48.080Z,99320.91
2019-04-30T20:25:47.102Z,99302.41
2019-04-30T20:29:56.145Z,99298.70
2019-04-30T20:34:04.400Z,99290.48
2019-04-30T20:38:33.868Z,99295.94
2019-04-30T20:42:41.920Z,99278.33
2019-04-30T20:46:49.824Z,99289.81
2019-04-30T20:51:01.123Z,99298.63
2019-04-30T20:55:07.373Z,99305.20
2019-04-30T20:59:15.927Z,99297.98
2019-04-30T21:03:23.606Z,99285.13
2019-04-30T21:07:31.831Z,99281.64
2019-04-30T21:11:40.479Z,99267.80
2019-04-30T21:15:49.618Z,99267.03
2019-04-30T21:19:58.862Z,99279.63
2019-04-30T21:24:07.172Z,99280.75
2019-04-30T21:28:14.774Z,99275.30
2019-04-30T21:32:41.076Z,99273.09
2019-04-30T21:36:49.564Z,99266.89
2019-04-30T21:40:58.804Z,99275.26
2019-04-30T21:45:07.342Z,99296.16
2019-04-30T21:49:15.010Z,99296.04
2019-04-30T21:53:22.830Z,99294.98
2019-04-30T21:57:30.432Z,99301.08
2019-04-30T22:01:38.303Z,99305.38
2019-04-30T22:05:46.529Z,99307.59
2019-04-30T22:09:54.270Z,99316.53
2019-04-30T22:14:02.077Z,99321.61
2019-04-30T22:18:10.797Z,99313.11
2019-04-30T22:22:19.256Z,99308.19
2019-04-30T22:26:27.258Z,99300.05
2019-04-30T22:30:35.154Z,99306.20
2019-04-30T22:34:43.052Z,99311.00
2019-04-30T22:39:20.017Z,99305.53
2019-04-30T22:43:27.888Z,99297.09
2019-04-30T22:47:36.189Z,99306.30
2019-04-30T22:51:45.112Z,99308.49
2019-04-30T22:55:53.160Z,99308.32
2019-04-30T23:00:00.959Z,99315.57
2019-04-30T23:04:14.845Z,99311.64
2019-04-30T23:08:22.418Z,99308.92
2019-04-30T23:12:30.068Z,99302.41
2019-04-30T23:16:38.463Z,99302.85
2019-04-30T23:20:46.271Z,99298.84
2019-04-30T23:24:54.068Z,99293.94
2019-04-30T23:29:01.995Z,99289.21
2019-04-30T23:33:09.600Z,99296.55
2019-04-30T23:37:17.618Z,99297.50
2019-04-30T23:41:25.352Z,99291.97
2019-04-30T23:45:33.227Z,99304.34
2019-04-30T23:49:41.250Z,99293.84
2019-04-30T23:53:49.049Z,99277.33
2019-04-30T23:57:56.866Z,99278.58
